createdAt,value
2023-04-08T00:01:20.594Z,12.00
2023-04-08T00:03:47.641Z,13.02
2023-04-08T00:06:14.747Z,12.25
2023-04-08T00:08:41.830Z,12.73
2023-04-08T00:11:08.869Z,13.35
2023-04-08T00:13:36.321Z,13.10
2023-04-08T00:16:03.510Z,12.82
2023-04-08T00:18:30.725Z,12.55
2023-04-08T00:20:57.783Z,12.05
2023-04-08T00:23:24.884Z,13.88
2023-04-08T00:25:51.963Z,13.32
2023-04-08T00:28:18.906Z,12.55
2023-04-08T00:30:45.933Z,13.20
2023-04-08T00:33:15.212Z,13.05
2023-04-08T00:35:42.245Z,13.35
2023-04-08T00:38:10.138Z,11.98
2023-04-08T00:40:38.558Z,12.98
2023-04-08T00:43:05.565Z,12.90
2023-04-08T00:45:33.879Z,13.43
2023-04-08T00:48:02.902Z,14.15
2023-04-08T00:50:29.973Z,14.50
2023-04-08T00:52:57.148Z,13.80
2023-04-08T00:55:24.440Z,13.68
2023-04-08T00:57:52.216Z,13.07
2023-04-08T01:00:19.372Z,13.80
2023-04-08T01:02:59.338Z,14.38
2023-04-08T01:06:00.806Z,14.35
2023-04-08T01:08:31.428Z,11.20
2023-04-08T01:11:03.275Z,15.63
2023-04-08T01:13:34.573Z,15.52
2023-04-08T01:16:01.761Z,15.95
2023-04-08T01:18:31.029Z,15.05
2023-04-08T01:20:59.300Z,16.45
2023-04-08T01:24:13.403Z,16.70
2023-04-08T01:26:41.553Z,15.60
2023-04-08T01:29:11.272Z,16.42
2023-04-08T01:31:41.262Z,16.15
2023-04-08T01:34:11.798Z,15.73
2023-04-08T01:36:39.780Z,16.13
2023-04-08T01:39:07.633Z,15.82
2023-04-08T01:41:37.654Z,16.42
2023-04-08T01:44:07.944Z,16.15
2023-04-08T01:46:36.208Z,16.65
2023-04-08T01:49:04.436Z,15.38
2023-04-08T01:51:32.086Z,17.20
2023-04-08T01:53:59.153Z,16.30
2023-04-08T01:56:29.354Z,15.45
2023-04-08T01:59:00.740Z,15.90
2023-04-08T02:01:29.904Z,16.70
2023-04-08T02:03:59.454Z,17.63
2023-04-08T02:06:29.353Z,18.55
2023-04-08T02:08:56.960Z,18.02
2023-04-08T02:11:25.134Z,17.55
2023-04-08T02:13:52.959Z,17.45
2023-04-08T02:16:46.521Z,17.52
2023-04-08T02:19:31.064Z,16.85
2023-04-08T02:22:06.030Z,18.75
2023-04-08T02:24:36.149Z,17.45
2023-04-08T02:27:04.679Z,19.45
2023-04-08T02:29:38.035Z,18.45
2023-04-08T02:32:06.604Z,19.45
2023-04-08T02:34:35.803Z,18.85
2023-04-08T02:37:02.970Z,19.20
2023-04-08T02:39:33.645Z,19.83
2023-04-08T02:42:01.244Z,19.52
2023-04-08T02:44:28.342Z,19.30
2023-04-08T02:46:55.958Z,19.42
2023-04-08T02:49:22.998Z,19.92
2023-04-08T02:51:49.954Z,18.05
2023-04-08T02:54:17.042Z,19.35
2023-04-08T02:56:44.304Z,19.83
2023-04-08T02:59:11.370Z,20.10
2023-04-08T03:01:38.490Z,19.00
2023-04-08T03:04:05.966Z,19.55
2023-04-08T03:06:33.234Z,19.73
2023-04-08T03:09:00.211Z,18.83
2023-04-08T03:11:27.210Z,19.48
2023-04-08T03:13:54.193Z,19.55
2023-04-08T03:16:21.518Z,19.05
2023-04-08T03:18:50.656Z,19.88
2023-04-08T03:21:18.194Z,18.65
2023-04-08T03:23:46.296Z,19.33
2023-04-08T03:26:13.422Z,17.38
2023-04-08T03:28:40.409Z,17.70
2023-04-08T03:31:07.472Z,19.20
2023-04-08T03:33:34.471Z,19.55
2023-04-08T03:36:02.956Z,18.73
2023-04-08T03:38:30.125Z,18.13
2023-04-08T03:40:59.189Z,19.15
2023-04-08T03:43:26.267Z,18.27
2023-04-08T03:45:53.420Z,17.15
2023-04-08T03:48:20.537Z,18.73
2023-04-08T03:50:47.590Z,16.73
2023-04-08T03:53:14.592Z,17.80
2023-04-08T03:55:42.170Z,16.58
2023-04-08T03:58:09.250Z,18.67
2023-04-08T04:00:38.065Z,18.27
2023-04-08T04:03:05.149Z,18.92
2023-04-08T04:05:32.161Z,18.23
2023-04-08T04:07:59.069Z,18.05
2023-04-08T04:10:26.024Z,18.05
2023-04-08T04:12:53.063Z,18.13
2023-04-08T04:15:22.557Z,17.02
2023-04-08T04:17:52.919Z,18.63
2023-04-08T04:20:20.243Z,18.27
2023-04-08T04:22:47.342Z,16.05
2023-04-08T04:25:14.595Z,16.40
2023-04-08T04:27:41.831Z,16.13
2023-04-08T04:30:10.740Z,16.58
2023-04-08T04:32:37.806Z,14.55
2023-04-08T04:35:05.201Z,15.65
2023-04-08T04:37:32.284Z,14.68
2023-04-08T04:39:59.326Z,15.30
2023-04-08T04:42:26.621Z,15.60
2023-04-08T04:44:55.444Z,15.65
2023-04-08T04:47:23.204Z,14.77
2023-04-08T04:49:50.449Z,15.57
2023-04-08T04:52:17.571Z,16.27
2023-04-08T04:54:44.623Z,15.75
2023-04-08T04:57:11.566Z,16.15
2023-04-08T04:59:38.489Z,16.98
2023-04-08T05:02:05.852Z,15.77
2023-04-08T05:04:33.896Z,16.15
2023-04-08T05:07:02.785Z,16.45
2023-04-08T05:09:30.029Z,16.75
2023-04-08T05:11:57.230Z,16.58
2023-04-08T05:14:24.467Z,15.55
2023-04-08T05:16:51.412Z,16.23
2023-04-08T05:19:18.460Z,15.35
2023-04-08T05:21:45.538Z,16.35
2023-04-08T05:24:12.674Z,16.17
2023-04-08T05:26:39.775Z,16.33
2023-04-08T05:29:06.912Z,16.02
2023-04-08T05:31:34.136Z,17.73
2023-04-08T05:34:01.410Z,17.13
2023-04-08T05:36:28.705Z,17.23
2023-04-08T05:38:55.806Z,17.50
2023-04-08T05:41:22.766Z,16.92
2023-04-08T05:43:49.849Z,17.88
2023-04-08T05:46:17.512Z,17.23
2023-04-08T05:48:44.661Z,18.30
2023-04-08T05:51:15.790Z,18.42
2023-04-08T05:53:42.788Z,14.10
2023-04-08T05:56:09.982Z,19.08
2023-04-08T05:58:37.036Z,18.52
2023-04-08T06:01:04.322Z,17.85
2023-04-08T06:03:31.525Z,17.33
2023-04-08T06:05:58.737Z,17.70
2023-04-08T06:08:25.793Z,16.90
2023-04-08T06:10:52.910Z,20.15
2023-04-08T06:13:22.051Z,19.75
2023-04-08T06:15:50.379Z,19.63
2023-04-08T06:18:17.820Z,19.88
2023-04-08T06:20:46.975Z,19.17
2023-04-08T06:23:14.140Z,18.88
2023-04-08T06:25:44.041Z,18.17
2023-04-08T06:28:11.041Z,18.73
2023-04-08T06:30:38.065Z,18.40
2023-04-08T06:33:05.151Z,18.63
2023-04-08T06:35:32.732Z,20.05
2023-04-08T06:37:59.786Z,18.55
2023-04-08T06:40:26.921Z,19.75
2023-04-08T06:42:54.360Z,18.55
2023-04-08T06:45:37.208Z,19.58
2023-04-08T06:48:04.459Z,19.27
2023-04-08T06:50:31.637Z,20.23
2023-04-08T06:53:01.559Z,19.85
2023-04-08T06:58:09.545Z,15.52
2023-04-08T07:00:38.440Z,20.20
2023-04-08T07:03:06.851Z,20.50
2023-04-08T07:05:36.996Z,20.88
2023-04-08T07:08:04.354Z,21.33
2023-04-08T07:10:31.382Z,21.25
2023-04-08T07:12:59.748Z,21.85
2023-04-08T07:15:27.096Z,21.42
2023-04-08T07:17:57.015Z,22.15
2023-04-08T07:20:24.302Z,22.27
2023-04-08T07:22:51.499Z,21.50
2023-04-08T07:25:18.876Z,21.42
2023-04-08T07:27:45.917Z,20.67
2023-04-08T07:30:13.123Z,22.70
2023-04-08T07:32:40.539Z,23.98
2023-04-08T07:35:08.123Z,22.35
2023-04-08T07:37:37.942Z,22.60
2023-04-08T07:40:05.599Z,22.77
2023-04-08T07:42:32.694Z,23.67
2023-04-08T07:45:00.953Z,22.20
2023-04-08T07:47:31.609Z,21.95
2023-04-08T07:49:58.562Z,22.85
2023-04-08T07:52:26.403Z,23.25
2023-04-08T07:54:53.549Z,22.92
2023-04-08T07:57:25.683Z,24.20
2023-04-08T07:59:53.781Z,23.38
2023-04-08T08:02:25.442Z,24.13
2023-04-08T08:04:52.583Z,23.23
2023-04-08T08:07:19.564Z,22.27
2023-04-08T08:09:46.574Z,23.15
2023-04-08T08:12:13.642Z,23.83
2023-04-08T08:14:40.795Z,24.65
2023-04-08T08:17:07.800Z,24.48
2023-04-08T08:19:34.785Z,24.15
2023-04-08T08:22:01.759Z,23.02
2023-04-08T08:24:28.787Z,23.90
2023-04-08T08:26:55.905Z,25.10
2023-04-08T08:29:22.822Z,24.25
2023-04-08T08:31:49.901Z,24.30
2023-04-08T08:34:18.047Z,24.77
2023-04-08T08:36:45.055Z,22.70
2023-04-08T08:39:12.059Z,22.70
2023-04-08T08:41:39.131Z,23.35
2023-04-08T08:44:07.747Z,23.58
2023-04-08T08:46:36.852Z,23.20
2023-04-08T08:49:05.166Z,23.52
2023-04-08T08:51:33.404Z,23.50
2023-04-08T08:54:04.768Z,24.25
2023-04-08T08:56:34.329Z,24.35
2023-04-08T08:59:01.494Z,24.40
2023-04-08T09:01:37.962Z,23.83
2023-04-08T09:04:18.589Z,24.20
2023-04-08T09:06:50.358Z,24.17
2023-04-08T09:09:18.218Z,23.60
2023-04-08T09:11:48.578Z,23.58
2023-04-08T09:14:22.358Z,23.80
2023-04-08T09:16:50.320Z,23.58
2023-04-08T09:19:17.455Z,23.75
2023-04-08T09:21:44.410Z,24.75
2023-04-08T09:24:29.147Z,23.52
2023-04-08T09:26:56.689Z,23.73
2023-04-08T09:29:26.720Z,23.67
2023-04-08T09:31:59.397Z,24.75
2023-04-08T09:34:28.000Z,24.00
2023-04-08T09:36:56.358Z,24.17
2023-04-08T09:39:24.001Z,23.38
2023-04-08T09:41:52.642Z,23.98
2023-04-08T09:44:21.643Z,23.65
2023-04-08T09:46:54.712Z,23.30
2023-04-08T09:49:29.151Z,24.95
2023-04-08T09:52:40.335Z,24.80
2023-04-08T09:55:11.338Z,23.75
2023-04-08T09:57:57.860Z,24.50
2023-04-08T10:00:30.373Z,23.30
2023-04-08T10:03:15.677Z,23.70
2023-04-08T10:05:44.636Z,23.65
2023-04-08T10:08:13.889Z,24.80
2023-04-08T10:10:41.787Z,23.15
2023-04-08T10:13:09.459Z,23.13
2023-04-08T10:15:38.595Z,23.42
2023-04-08T10:18:08.234Z,23.20
2023-04-08T10:20:35.983Z,22.52
2023-04-08T10:23:07.580Z,24.02
2023-04-08T10:25:50.371Z,23.85
2023-04-08T10:28:20.294Z,23.02
2023-04-08T10:30:52.070Z,22.45
2023-04-08T10:35:55.748Z,21.90
2023-04-08T10:38:22.868Z,23.25
2023-04-08T10:40:51.554Z,21.38
2023-04-08T10:43:18.643Z,20.58
2023-04-08T10:45:48.625Z,19.25
2023-04-08T10:48:33.439Z,18.67
2023-04-08T10:51:04.217Z,19.27
2023-04-08T10:53:36.810Z,18.20
2023-04-08T10:56:15.773Z,16.05
2023-04-08T10:58:52.595Z,16.17
2023-04-08T11:01:19.978Z,16.65
2023-04-08T11:03:47.303Z,17.55
2023-04-08T11:06:17.279Z,13.90
2023-04-08T11:08:44.914Z,13.95
2023-04-08T11:11:12.559Z,13.98
2023-04-08T11:13:52.840Z,14.52
2023-04-08T11:16:24.335Z,14.20
2023-04-08T11:18:51.880Z,14.82
2023-04-08T11:21:20.425Z,14.00
2023-04-08T11:23:53.518Z,14.88
2023-04-08T11:26:21.600Z,13.15
2023-04-08T11:28:51.540Z,13.13
2023-04-08T11:31:23.441Z,12.90
2023-04-08T11:33:55.626Z,12.35
2023-04-08T11:36:24.043Z,12.45
2023-04-08T11:38:53.552Z,12.32
2023-04-08T11:41:22.482Z,11.80
2023-04-08T11:43:57.305Z,12.57
2023-04-08T11:46:24.845Z,13.20
2023-04-08T11:49:06.647Z,13.27
2023-04-08T11:51:35.717Z,12.63
2023-04-08T11:54:08.576Z,12.68
2023-04-08T11:56:48.048Z,12.48
2023-04-08T11:59:17.653Z,11.90
2023-04-08T12:01:46.110Z,12.57
2023-04-08T12:04:13.410Z,12.52
2023-04-08T12:06:47.169Z,12.10
2023-04-08T12:09:17.638Z,11.43
2023-04-08T12:11:51.437Z,12.35
2023-04-08T12:14:18.854Z,12.55
2023-04-08T12:16:49.880Z,12.45
2023-04-08T12:19:18.151Z,11.85
2023-04-08T12:21:48.418Z,12.70
2023-04-08T12:24:35.326Z,11.85
2023-04-08T12:27:03.276Z,11.93
2023-04-08T12:29:30.539Z,11.07
2023-04-08T12:31:58.516Z,11.60
2023-04-08T12:34:25.750Z,11.05
2023-04-08T12:36:52.824Z,11.38
2023-04-08T12:39:19.873Z,11.77
2023-04-08T12:41:46.969Z,12.10
2023-04-08T12:44:14.170Z,11.25
2023-04-08T12:46:41.340Z,12.23
2023-04-08T12:49:09.293Z,11.20
2023-04-08T12:51:36.697Z,13.07
2023-04-08T12:54:04.131Z,11.95
2023-04-08T12:56:33.661Z,12.45
2023-04-08T12:59:01.436Z,12.82
2023-04-08T13:01:28.967Z,12.73
2023-04-08T13:03:56.328Z,11.50
2023-04-08T13:06:26.737Z,12.93
2023-04-08T13:08:54.168Z,13.68
2023-04-08T13:11:21.508Z,13.65
2023-04-08T13:13:48.637Z,12.75
2023-04-08T13:16:17.807Z,13.20
2023-04-08T13:18:45.131Z,12.90
2023-04-08T13:21:12.165Z,12.57
2023-04-08T13:23:39.367Z,12.80
2023-04-08T13:26:14.658Z,12.55
2023-04-08T13:28:57.388Z,12.05
2023-04-08T13:32:17.341Z,10.25
2023-04-08T13:34:44.608Z,9.65
2023-04-08T13:37:12.000Z,10.73
2023-04-08T13:39:41.432Z,10.38
2023-04-08T13:42:11.016Z,9.15
2023-04-08T13:44:40.454Z,8.77
2023-04-08T13:47:07.494Z,9.65
2023-04-08T13:49:36.621Z,8.48
2023-04-08T13:52:03.929Z,9.13
2023-04-08T13:54:31.152Z,8.98
2023-04-08T13:56:58.127Z,8.13
2023-04-08T13:59:25.387Z,7.80
2023-04-08T14:01:56.215Z,6.35
2023-04-08T14:04:26.272Z,6.72
2023-04-08T14:06:58.316Z,6.10
2023-04-08T14:09:25.614Z,6.13
2023-04-08T14:11:57.938Z,7.07
2023-04-08T14:14:25.111Z,5.97
2023-04-08T14:16:52.906Z,6.07
2023-04-08T14:19:20.050Z,5.88
2023-04-08T14:21:49.792Z,4.60
2023-04-08T14:24:18.565Z,5.25
2023-04-08T14:26:45.666Z,5.72
2023-04-08T14:29:18.742Z,5.30
2023-04-08T14:31:46.681Z,5.30
2023-04-08T14:34:13.800Z,5.20
2023-04-08T14:36:41.428Z,5.35
2023-04-08T14:39:12.705Z,5.00
2023-04-08T14:41:48.693Z,5.22
2023-04-08T14:44:15.996Z,5.00
2023-04-08T14:46:43.358Z,5.82
2023-04-08T14:49:10.729Z,5.38
2023-04-08T14:51:38.241Z,4.93
2023-04-08T14:54:09.139Z,4.50
2023-04-08T14:56:36.504Z,3.53
2023-04-08T14:59:03.563Z,5.05
2023-04-08T15:01:32.463Z,4.80
2023-04-08T15:04:02.358Z,4.53
2023-04-08T15:06:32.549Z,4.40
2023-04-08T15:09:03.128Z,4.57
2023-04-08T15:11:30.280Z,4.60
2023-04-08T15:13:57.247Z,4.35
2023-04-08T15:16:27.359Z,4.43
2023-04-08T15:18:55.595Z,4.30
2023-04-08T15:21:23.001Z,4.45
2023-04-08T15:24:00.741Z,4.72
2023-04-08T15:26:28.145Z,4.50
2023-04-08T15:29:01.303Z,3.97
2023-04-08T15:31:29.544Z,4.18
2023-04-08T15:33:59.566Z,4.85
2023-04-08T15:36:32.948Z,4.47
2023-04-08T15:39:06.787Z,4.60
2023-04-08T15:41:34.377Z,5.10
2023-04-08T15:44:02.290Z,5.32
2023-04-08T15:46:31.456Z,5.72
2023-04-08T15:49:00.235Z,6.03
2023-04-08T15:51:31.407Z,7.35
2023-04-08T15:54:03.812Z,8.18
2023-04-08T15:56:31.270Z,9.07
2023-04-08T15:59:01.051Z,8.80
2023-04-08T16:01:34.323Z,8.55
2023-04-08T16:04:10.273Z,9.50
2023-04-08T16:06:54.149Z,10.40
2023-04-08T16:09:27.611Z,10.95
2023-04-08T16:11:55.864Z,10.65
2023-04-08T16:14:29.318Z,11.55
2023-04-08T16:17:21.368Z,11.40
2023-04-08T16:19:57.504Z,11.55
2023-04-08T16:22:27.947Z,11.57
2023-04-08T16:27:46.898Z,11.27
2023-04-08T16:30:23.503Z,11.35
2023-04-08T16:32:53.128Z,12.07
2023-04-08T16:35:22.469Z,14.35
2023-04-08T16:37:51.859Z,14.13
2023-04-08T16:40:31.685Z,17.73
2023-04-08T16:43:04.970Z,12.27
2023-04-08T16:45:34.998Z,11.65
2023-04-08T16:48:04.860Z,11.00
2023-04-08T16:50:31.998Z,11.02
2023-04-08T16:52:59.168Z,9.93
2023-04-08T16:55:26.355Z,9.75
2023-04-08T16:57:56.073Z,9.30
2023-04-08T17:00:27.298Z,9.82
2023-04-08T17:03:02.612Z,9.90
2023-04-08T17:06:06.782Z,10.43
2023-04-08T17:08:36.271Z,9.95
2023-04-08T17:11:13.602Z,11.98
2023-04-08T17:13:43.087Z,11.90
2023-04-08T17:16:15.091Z,11.50
2023-04-08T17:18:43.097Z,11.38
2023-04-08T17:21:10.619Z,12.25
2023-04-08T17:23:37.623Z,14.57
2023-04-08T17:26:07.624Z,21.30
2023-04-08T17:28:35.454Z,10.70
2023-04-08T17:31:05.043Z,11.25
2023-04-08T17:33:34.057Z,11.48
2023-04-08T17:36:03.683Z,11.45
2023-04-08T17:38:31.460Z,12.05
2023-04-08T17:41:00.043Z,13.77
2023-04-08T17:43:29.505Z,21.40
2023-04-08T17:46:00.918Z,15.10
2023-04-08T17:48:28.849Z,15.38
2023-04-08T17:51:03.844Z,16.05
2023-04-08T17:53:32.203Z,14.23
2023-04-08T17:55:59.512Z,12.95
2023-04-08T17:58:27.240Z,13.27
2023-04-08T18:00:55.792Z,11.88
2023-04-08T18:03:26.400Z,15.60
2023-04-08T18:05:55.214Z,11.63
2023-04-08T18:08:24.165Z,11.18
2023-04-08T18:11:08.614Z,11.27
2023-04-08T18:13:35.762Z,11.45
2023-04-08T18:16:02.752Z,11.45
2023-04-08T18:18:30.896Z,11.88
2023-04-08T18:20:57.945Z,11.98
2023-04-08T18:23:25.063Z,11.27
2023-04-08T18:25:52.383Z,12.05
2023-04-08T18:28:19.512Z,12.10
2023-04-08T18:30:51.548Z,11.73
2023-04-08T18:33:18.668Z,12.68
2023-04-08T18:35:45.877Z,12.35
2023-04-08T18:38:13.189Z,12.52
2023-04-08T18:40:40.794Z,12.57
2023-04-08T18:43:10.437Z,11.18
2023-04-08T18:45:37.436Z,11.75
2023-04-08T18:48:04.465Z,11.10
2023-04-08T18:50:31.507Z,10.93
2023-04-08T18:52:58.775Z,11.88
2023-04-08T18:55:30.140Z,12.55
2023-04-08T18:57:57.858Z,12.80
2023-04-08T19:00:25.068Z,13.38
2023-04-08T19:02:52.166Z,12.38
2023-04-08T19:05:19.552Z,11.70
2023-04-08T19:07:48.804Z,12.30
2023-04-08T19:10:16.222Z,13.45
2023-04-08T19:12:43.211Z,12.75
2023-04-08T19:15:13.501Z,12.75
2023-04-08T19:17:40.441Z,13.35
2023-04-08T19:20:11.152Z,14.05
2023-04-08T19:22:41.223Z,14.52
2023-04-08T19:25:08.612Z,14.93
2023-04-08T19:27:38.730Z,15.95
2023-04-08T19:30:06.968Z,16.85
2023-04-08T19:32:35.381Z,15.10
2023-04-08T19:35:02.486Z,14.73
2023-04-08T19:37:29.519Z,14.35
2023-04-08T19:39:57.922Z,15.07
2023-04-08T19:42:27.760Z,16.25
2023-04-08T19:44:57.776Z,16.25
2023-04-08T19:47:26.736Z,16.10
2023-04-08T19:49:53.725Z,14.73
2023-04-08T19:52:22.654Z,14.63
2023-04-08T19:54:51.436Z,13.43
2023-04-08T19:57:18.777Z,14.45
2023-04-08T19:59:45.958Z,13.18
2023-04-08T20:02:12.982Z,12.40
2023-04-08T20:04:42.228Z,13.35
2023-04-08T20:07:09.328Z,13.07
2023-04-08T20:09:38.981Z,12.65
2023-04-08T20:12:07.826Z,13.05
2023-04-08T20:14:37.922Z,12.93
2023-04-08T20:17:08.111Z,12.55
2023-04-08T20:19:37.873Z,12.52
2023-04-08T20:22:05.208Z,12.07
2023-04-08T20:24:35.592Z,12.75
2023-04-08T20:27:04.578Z,12.23
2023-04-08T20:29:32.339Z,12.02
2023-04-08T20:32:00.592Z,12.50
2023-04-08T20:34:27.542Z,12.60
2023-04-08T20:36:54.810Z,12.40
2023-04-08T20:39:29.725Z,13.18
2023-04-08T20:42:00.770Z,11.25
2023-04-08T20:44:30.277Z,11.43
2023-04-08T20:46:58.046Z,11.50
2023-04-08T20:49:25.795Z,11.50
2023-04-08T20:51:55.452Z,11.27
2023-04-08T20:54:26.964Z,10.75
2023-04-08T20:56:53.856Z,12.27
2023-04-08T20:59:20.962Z,12.30
2023-04-08T21:01:48.260Z,11.85
2023-04-08T21:04:16.712Z,10.38
2023-04-08T21:06:43.734Z,11.20
2023-04-08T21:09:11.416Z,11.00
2023-04-08T21:11:38.352Z,10.48
2023-04-08T21:14:09.178Z,11.48
2023-04-08T21:16:36.143Z,12.35
2023-04-08T21:19:05.820Z,16.15
2023-04-08T21:21:32.919Z,14.23
2023-04-08T21:24:00.665Z,14.85
2023-04-08T21:26:27.802Z,14.27
2023-04-08T21:28:54.767Z,19.65
2023-04-08T21:31:21.723Z,13.73
2023-04-08T21:33:48.728Z,16.85
2023-04-08T21:36:15.856Z,19.42
2023-04-08T21:38:43.173Z,15.95
2023-04-08T21:41:10.057Z,13.75
2023-04-08T21:43:37.047Z,15.68
2023-04-08T21:46:04.130Z,18.98
2023-04-08T21:48:31.233Z,17.48
2023-04-08T21:50:58.317Z,19.77
2023-04-08T21:53:25.326Z,21.60
2023-04-08T21:55:52.231Z,25.15
2023-04-08T21:58:19.335Z,20.05
2023-04-08T22:00:46.500Z,20.15
2023-04-08T22:03:13.718Z,25.15
2023-04-08T22:05:40.770Z,20.27
2023-04-08T22:08:07.972Z,23.40
2023-04-08T22:10:35.243Z,22.50
2023-04-08T22:13:02.202Z,19.02
2023-04-08T22:15:29.122Z,22.38
2023-04-08T22:17:56.129Z,20.38
2023-04-08T22:20:23.180Z,22.50
2023-04-08T22:22:50.462Z,25.75
2023-04-08T22:25:17.681Z,23.42
2023-04-08T22:27:45.425Z,19.17
2023-04-08T22:30:13.176Z,16.60
2023-04-08T22:32:40.696Z,12.95
2023-04-08T22:35:09.531Z,11.93
2023-04-08T22:37:37.002Z,11.73
2023-04-08T22:40:06.150Z,12.57
2023-04-08T22:42:33.412Z,11.27
2023-04-08T22:45:00.671Z,10.23
2023-04-08T22:47:28.137Z,9.82
2023-04-08T22:49:55.559Z,9.65
2023-04-08T22:52:22.704Z,9.30
2023-04-08T22:54:49.785Z,9.55
2023-04-08T22:57:18.694Z,9.48
2023-04-08T22:59:46.064Z,9.27
2023-04-08T23:02:16.581Z,8.65
2023-04-08T23:04:44.424Z,9.07
2023-04-08T23:07:11.376Z,8.73
2023-04-08T23:09:38.363Z,8.55
2023-04-08T23:12:05.672Z,8.85
2023-04-08T23:14:32.921Z,9.20
2023-04-08T23:17:00.179Z,7.95
2023-04-08T23:19:27.111Z,8.48
2023-04-08T23:21:54.102Z,8.73
2023-04-08T23:24:21.182Z,8.35
2023-04-08T23:26:50.163Z,7.80
2023-04-08T23:29:17.228Z,8.07
2023-04-08T23:31:44.386Z,7.88
2023-04-08T23:34:11.852Z,7.20
2023-04-08T23:36:38.741Z,7.22
2023-04-08T23:39:07.765Z,8.10
2023-04-08T23:41:37.035Z,7.10
2023-04-08T23:44:04.114Z,6.57
2023-04-08T23:46:31.403Z,6.35
2023-04-08T23:48:58.523Z,6.30
2023-04-08T23:51:32.780Z,6.45
2023-04-08T23:53:59.890Z,5.72
2023-04-08T23:56:27.495Z,6.50
2023-04-08T23:58:54.655Z,5.80
